NowCast ZoneCast Warnings/Advisories Hourly Track Special Radar
Punta Gorda, Charlotte County Airport, United States  Lat: 26.92N, Lon: 81.99W
ICAO Used: KPGD
Current Conditions
Updated: 11:53 AM EST THU OCT 23 2014
Sun & Moon Information:
Partly Cloudy
Partly Cloudy
Temp: 78°F
Humidity: 67%
Wind Speed: E11.5MPH G TO19.6(10MPH G TO17KT)
Barometer: 29.97 in.
Dewpoint: 66°F
Heat Index: 78°F
Wind Chill: 78°F
Civil Twilight: 6:07 AM EST Moon Phase:
Waxing Crescent Moon
Waxing Crescent Moon
Sunrise: 6:31 AM EST
Sunset: 5:52 PM EST
Civil Twilight: 6:16 PM EST
Forecast for Punta Gorda, Charlotte County Airport, FL, United States:
(Forecast based on TAF for )
0700 PM EST WED OCT 22 2014
  
OVERNIGHT MORNING AFTERNOON EVENING OVERNIGHT
Partly Cloudy Partly Cloudy Partly Cloudy Partly Cloudy Partly Cloudy
Partly
Cloudy
Partly
Cloudy
Partly
Cloudy
Partly
Cloudy
Partly
Cloudy
TAF based forecast:
Dated: 0700 PM EST WED OCT 22 2014
Overnight...Turning partly cloudy with winds from the northeast at 9 mph.
Morning...Partly cloudy with winds from the northeast at 9 mph.
Afternoon...Partly cloudy with winds from the northeast at 13 mph.
Evening...Partly cloudy with winds from the northeast at 13 mph.
Overnight...Partly cloudy with winds from the northeast at 13 mph.
Original Encoded TAF:
Dated: 0700 PM EST WED OCT 22 2014
KPGD 231736Z 2318/2418 07011G18KT P6SM FEW040 
     FM240000 05008KT P6SM FEW250 
     FM241400 04011KT P6SM FEW040 FEW250